| time (UTC) | temp F | wind direction | speed MPH | gust MPH | rain 1hr in | rain 24hr in | rain mn in | humidity % | barometer mb |
| 20260504204550 | 77 | 189 | 2.0 | 6.0 | 0.00 | 0.00 | 0.00 | 33 | 1014.6 |
| 20260504204049 | 77 | 231 | 0.0 | 3.0 | 0.00 | 0.00 | 0.00 | 33 | 1014.7 |
| 20260504203547 | 77 | 186 | 1.0 | 4.0 | 0.00 | 0.00 | 0.00 | 31 | 1014.7 |
| 20260504203044 | 78 | 182 | 5.0 | 5.0 | 0.00 | 0.00 | 0.00 | 32 | 1014.7 |
| 20260504202539 | 78 | 259 | 0.0 | 4.0 | 0.00 | 0.00 | 0.00 | 31 | 1014.9 |
| 20260504202036 | 78 | 241 | 4.0 | 8.0 | 0.00 | 0.00 | 0.00 | 32 | 1014.9 |
| 20260504201533 | 78 | 180 | 4.0 | 6.0 | 0.00 | 0.00 | 0.00 | 34 | 1014.9 |
| 20260504201031 | 78 | 205 | 2.0 | 4.0 | 0.00 | 0.00 | 0.00 | 34 | 1014.9 |
| 20260504200527 | 77 | 204 | 4.0 | 7.0 | 0.00 | 0.00 | 0.00 | 33 | 1015.0 |
| 20260504200024 | 77 | 180 | 2.0 | 6.0 | 0.00 | 0.00 | 0.00 | 33 | 1015.1 |
| 20260504195520 | 77 | 221 | 5.0 | 6.0 | 0.00 | 0.00 | 0.00 | 34 | 1015.3 |
| 20260504195017 | 76 | 232 | 4.0 | 5.0 | 0.00 | 0.00 | 0.00 | 33 | 1015.2 |
| 20260504194513 | 76 | 205 | 5.0 | 5.0 | 0.00 | 0.00 | 0.00 | 33 | 1015.2 |
| 20260504194009 | 77 | 213 | 6.0 | 7.0 | 0.00 | 0.00 | 0.00 | 32 | 1015.3 |
| 20260504193506 | 77 | 157 | 3.0 | 4.0 | 0.00 | 0.00 | 0.00 | 32 | 1015.2 |
| 20260504193005 | 77 | 210 | 9.0 | 9.0 | 0.00 | 0.00 | 0.00 | 33 | 1015.4 |
| 20260504192502 | 77 | 180 | 2.0 | 3.0 | 0.00 | 0.00 | 0.00 | 34 | 1015.7 |
| 20260504192000 | 76 | 157 | 4.0 | 6.0 | 0.00 | 0.00 | 0.00 | 35 | 1015.6 |
| 20260504191458 | 77 | 163 | 3.0 | 6.0 | 0.00 | 0.00 | 0.00 | 34 | 1015.4 |
| 20260504190953 | 77 | 213 | 2.0 | 5.0 | 0.00 | 0.00 | 0.00 | 33 | 1015.5 |
| 20260504190449 | 77 | 147 | 3.0 | 5.0 | 0.00 | 0.00 | 0.00 | 32 | 1015.9 |
| 20260504185946 | 77 | 226 | 3.0 | 5.0 | 0.00 | 0.00 | 0.00 | 34 | 1015.9 |
| 20260504185443 | 77 | 229 | 6.0 | 6.0 | 0.00 | 0.00 | 0.00 | 35 | 1016.0 |
| 20260504184939 | 77 | 237 | 2.0 | 4.0 | 0.00 | 0.00 | 0.00 | 35 | 1016.0 |
| 20260504184435 | 77 | 167 | 4.0 | 6.0 | 0.00 | 0.00 | 0.00 | 35 | 1016.0 |
| 20260504183931 | 77 | 246 | 1.0 | 5.0 | 0.00 | 0.00 | 0.00 | 34 | 1016.1 |
| 20260504183428 | 77 | 219 | 2.0 | 5.0 | 0.00 | 0.00 | 0.00 | 34 | 1016.1 |
| 20260504182926 | 77 | 187 | 3.0 | 4.0 | 0.00 | 0.00 | 0.00 | 36 | 1016.3 |
| 20260504182423 | 77 | 219 | 4.0 | 5.0 | 0.00 | 0.00 | 0.00 | 36 | 1016.1 |
| 20260504181920 | 77 | 165 | 3.0 | 3.0 | 0.00 | 0.00 | 0.00 | 37 | 1016.4 |
| 20260504181417 | 77 | 229 | 2.0 | 4.0 | 0.00 | 0.00 | 0.00 | 38 | 1016.3 |
| 20260504180916 | 76 | 163 | 2.0 | 3.0 | 0.00 | 0.00 | 0.00 | 35 | 1016.5 |
| 20260504180414 | 75 | 168 | 4.0 | 5.0 | 0.00 | 0.00 | 0.00 | 37 | 1016.7 |
| 20260504175912 | 75 | 218 | 3.0 | 5.0 | 0.00 | 0.00 | 0.00 | 37 | 1016.8 |
| 20260504175409 | 75 | 221 | 4.0 | 9.0 | 0.00 | 0.00 | 0.00 | 36 | 1016.8 |
| 20260504174907 | 75 | 254 | 3.0 | 6.0 | 0.00 | 0.00 | 0.00 | 37 | 1016.8 |
| 20260504174404 | 75 | 139 | 1.0 | 5.0 | 0.00 | 0.00 | 0.00 | 38 | 1016.8 |
| 20260504173901 | 75 | 174 | 4.0 | 5.0 | 0.00 | 0.00 | 0.00 | 38 | 1017.0 |
| 20260504173357 | 75 | 232 | 3.0 | 4.0 | 0.00 | 0.00 | 0.00 | 38 | 1016.8 |
| 20260504172855 | 75 | 207 | 2.0 | 5.0 | 0.00 | 0.00 | 0.00 | 38 | 1017.1 |
| 20260504172351 | 75 | 218 | 3.0 | 6.0 | 0.00 | 0.00 | 0.00 | 38 | 1017.1 |
| 20260504171847 | 76 | 223 | 2.0 | 4.0 | 0.00 | 0.00 | 0.00 | 38 | 1017.0 |
| 20260504171344 | 75 | 195 | 2.0 | 4.0 | 0.00 | 0.00 | 0.00 | 39 | 1017.1 |
| 20260504170842 | 75 | 178 | 2.0 | 4.0 | 0.00 | 0.00 | 0.00 | 42 | 1017.0 |
| 20260504170338 | 74 | 182 | 2.0 | 3.0 | 0.00 | 0.00 | 0.00 | 40 | 1017.2 |
| 20260504160256 | 70 | 205 | 6.0 | 11.0 | 0.00 | 0.00 | 0.00 | 42 | 1017.7 |
| 20260504150722 | 68 | 240 | 1.0 | 4.0 | 0.00 | 0.00 | 0.00 | 44 | 1018.4 |
| 20260504150219 | 68 | 218 | 3.0 | 4.0 | 0.00 | 0.00 | 0.00 | 45 | 1018.6 |
| 20260504141148 | 62 | 184 | 4.0 | 5.0 | 0.00 | 0.00 | 0.00 | 60 | 1018.7 |
| 20260504140645 | 62 | 215 | 3.0 | 3.0 | 0.00 | 0.00 | 0.00 | 62 | 1018.7 |
| 20260504140140 | 61 | 229 | 2.0 | 3.0 | 0.00 | 0.00 | 0.00 | 61 | 1018.8 |
| 20260504130609 | 53 | 315 | 0.0 | 2.0 | 0.00 | 0.00 | 0.00 | 79 | 1018.5 |
| 20260504130105 | 52 | 325 | 0.0 | 1.0 | 0.00 | 0.00 | 0.00 | 82 | 1018.6 |
| 20260504110456 | 43 | 210 | 1.0 | 2.0 | 0.00 | 0.00 | 0.00 | 92 | 1017.8 |
| 20260504100418 | 42 | 212 | 2.0 | 2.0 | 0.00 | 0.00 | 0.00 | 92 | 1017.6 |
| 20260504081811 | 44 | 194 | 2.0 | 2.0 | 0.00 | 0.00 | 0.00 | 91 | 1018.0 |
| 20260504081309 | 44 | 192 | 2.0 | 2.0 | 0.00 | 0.00 | 0.00 | 91 | 1017.8 |
| 20260504080804 | 44 | 248 | 1.0 | 2.0 | 0.00 | 0.00 | 0.00 | 91 | 1018.0 |
| 20260504080301 | 44 | 243 | 2.0 | 2.0 | 0.00 | 0.00 | 0.00 | 91 | 1017.8 |
| 20260504070229 | 45 | 185 | 2.0 | 2.0 | 0.00 | 0.00 | 0.00 | 89 | 1018.1 |
| 20260504060149 | 46 | 204 | 1.0 | 2.0 | 0.00 | 0.00 | 0.00 | 88 | 1018.1 |
| 20260504050617 | 48 | 219 | 1.0 | 2.0 | 0.00 | 0.00 | 0.00 | 86 | 1018.5 |
| 20260504050114 | 48 | 202 | 2.0 | 2.0 | 0.00 | 0.00 | 0.00 | 86 | 1018.9 |
| 20260504045611 | 48 | 206 | 2.0 | 2.0 | 0.00 | 0.00 | 0.00 | 86 | 1018.7 |
| 20260504045106 | 48 | 187 | 2.0 | 2.0 | 0.00 | 0.00 | 0.00 | 85 | 1018.6 |
| 20260504044604 | 49 | 181 | 0.0 | 2.0 | 0.00 | 0.00 | 0.00 | 84 | 1018.8 |
| 20260504044100 | 49 | 186 | 1.0 | 1.0 | 0.00 | 0.00 | 0.00 | 84 | 1018.8 |
| 20260504043558 | 50 | 207 | 0.0 | 1.0 | 0.00 | 0.00 | 0.00 | 82 | 1018.9 |
| 20260504043055 | 50 | 200 | 1.0 | 2.0 | 0.00 | 0.00 | 0.00 | 83 | 1018.9 |
| 20260504042552 | 50 | 184 | 1.0 | 2.0 | 0.00 | 0.00 | 0.00 | 82 | 1018.9 |
| 20260504042049 | 50 | 223 | 2.0 | 2.0 | 0.00 | 0.00 | 0.00 | 82 | 1018.9 |
| 20260504041545 | 50 | 186 | 1.0 | 2.0 | 0.00 | 0.00 | 0.00 | 82 | 1018.8 |
| 20260504041041 | 50 | 190 | 1.0 | 1.0 | 0.00 | 0.00 | 0.00 | 81 | 1018.8 |
| 20260504040539 | 50 | 185 | 1.0 | 2.0 | 0.00 | 0.00 | 0.00 | 81 | 1018.8 |
| 20260504040035 | 50 | 232 | 0.0 | 2.0 | 0.00 | 0.00 | 0.00 | 81 | 1018.8 |
| 20260504035532 | 50 | 224 | 0.0 | 2.0 | 0.00 | 0.00 | 0.00 | 81 | 1018.9 |
| 20260504035028 | 50 | 214 | 2.0 | 2.0 | 0.00 | 0.00 | 0.00 | 82 | 1018.9 |
| 20260504034526 | 50 | 179 | 1.0 | 2.0 | 0.00 | 0.00 | 0.00 | 82 | 1018.9 |
| 20260504034023 | 50 | 203 | 2.0 | 2.0 | 0.00 | 0.00 | 0.00 | 82 | 1018.8 |
| 20260504033521 | 51 | 174 | 1.0 | 1.0 | 0.00 | 0.00 | 0.00 | 81 | 1018.9 |
| 20260504033018 | 51 | 184 | 1.0 | 2.0 | 0.00 | 0.00 | 0.00 | 80 | 1018.9 |
| 20260504032515 | 51 | 215 | 2.0 | 2.0 | 0.00 | 0.00 | 0.00 | 79 | 1018.8 |
| 20260504032012 | 52 | 251 | 0.0 | 2.0 | 0.00 | 0.00 | 0.00 | 77 | 1018.8 |
| 20260504031509 | 52 | 219 | 2.0 | 2.0 | 0.00 | 0.00 | 0.00 | 77 | 1018.9 |
| 20260504031005 | 52 | 216 | 1.0 | 2.0 | 0.00 | 0.00 | 0.00 | 78 | 1018.9 |
| 20260504030503 | 52 | 214 | 2.0 | 2.0 | 0.00 | 0.00 | 0.00 | 78 | 1018.7 |
| 20260504025958 | 52 | 223 | 1.0 | 2.0 | 0.00 | 0.00 | 0.00 | 78 | 1018.8 |
| 20260504025455 | 52 | 203 | 2.0 | 2.0 | 0.00 | 0.00 | 0.00 | 77 | 1018.5 |
| 20260504024952 | 53 | 192 | 1.0 | 2.0 | 0.00 | 0.00 | 0.00 | 76 | 1018.6 |
| 20260504024449 | 53 | 188 | 2.0 | 2.0 | 0.00 | 0.00 | 0.00 | 75 | 1018.7 |
| 20260504023946 | 53 | 235 | 1.0 | 2.0 | 0.00 | 0.00 | 0.00 | 73 | 1018.7 |
| 20260504023443 | 54 | 204 | 1.0 | 2.0 | 0.00 | 0.00 | 0.00 | 73 | 1018.7 |
| 20260504022938 | 54 | 210 | 2.0 | 2.0 | 0.00 | 0.00 | 0.00 | 71 | 1018.6 |
| 20260504022435 | 54 | 231 | 2.0 | 2.0 | 0.00 | 0.00 | 0.00 | 71 | 1018.6 |
| 20260504021931 | 55 | 204 | 0.0 | 2.0 | 0.00 | 0.00 | 0.00 | 71 | 1018.4 |
| 20260504021429 | 55 | 203 | 2.0 | 2.0 | 0.00 | 0.00 | 0.00 | 68 | 1018.3 |
| 20260504020926 | 55 | 274 | 0.0 | 2.0 | 0.00 | 0.00 | 0.00 | 66 | 1018.4 |
| 20260504020422 | 55 | 201 | 2.0 | 2.0 | 0.00 | 0.00 | 0.00 | 66 | 1018.3 |
| 20260504015919 | 55 | 238 | 0.0 | 2.0 | 0.00 | 0.00 | 0.00 | 65 | 1018.3 |
| 20260504015415 | 56 | 223 | 2.0 | 2.0 | 0.00 | 0.00 | 0.00 | 65 | 1018.0 |
| 20260504014911 | 56 | 263 | 1.0 | 2.0 | 0.00 | 0.00 | 0.00 | 64 | 1018.1 |
| 20260504014407 | 56 | 204 | 2.0 | 2.0 | 0.00 | 0.00 | 0.00 | 64 | 1018.0 |
| 20260504013904 | 57 | 233 | 2.0 | 2.0 | 0.00 | 0.00 | 0.00 | 62 | 1017.8 |
| 20260504013403 | 57 | 258 | 0.0 | 2.0 | 0.00 | 0.00 | 0.00 | 63 | 1017.8 |
| 20260504012859 | 57 | 232 | 0.0 | 2.0 | 0.00 | 0.00 | 0.00 | 59 | 1017.9 |
| 20260504012357 | 57 | 252 | 1.0 | 2.0 | 0.00 | 0.00 | 0.00 | 60 | 1017.3 |
| 20260504011854 | 58 | 219 | 1.0 | 3.0 | 0.00 | 0.00 | 0.00 | 63 | 1017.5 |
| 20260504011350 | 58 | 230 | 1.0 | 2.0 | 0.00 | 0.00 | 0.00 | 58 | 1017.7 |
| 20260504010846 | 58 | 251 | 2.0 | 3.0 | 0.00 | 0.00 | 0.00 | 57 | 1017.6 |
| 20260504010342 | 59 | 249 | 2.0 | 2.0 | 0.00 | 0.00 | 0.00 | 61 | 1017.5 |
| 20260504005839 | 59 | 189 | 1.0 | 2.0 | 0.00 | 0.00 | 0.00 | 61 | 1017.6 |
| 20260504005336 | 60 | 211 | 2.0 | 2.0 | 0.00 | 0.00 | 0.00 | 58 | 1017.5 |
| 20260504004833 | 61 | 334 | 2.0 | 2.0 | 0.00 | 0.00 | 0.00 | 59 | 1017.3 |
| 20260504004331 | 61 | 218 | 2.0 | 2.0 | 0.00 | 0.00 | 0.00 | 56 | 1017.7 |
| 20260504003827 | 61 | 253 | 0.0 | 1.0 | 0.00 | 0.00 | 0.00 | 52 | 1017.2 |
| 20260504003324 | 62 | 248 | 0.0 | 0.0 | 0.00 | 0.00 | 0.00 | 50 | 1017.2 |
| 20260504002821 | 63 | 204 | 0.0 | 2.0 | 0.00 | 0.00 | 0.00 | 52 | 1017.1 |
| 20260504002317 | 64 | 205 | 2.0 | 2.0 | 0.00 | 0.00 | 0.00 | 51 | 1017.1 |
| 20260504001815 | 64 | 226 | 2.0 | 2.0 | 0.00 | 0.00 | 0.00 | 48 | 1017.1 |
| 20260504001312 | 65 | 285 | 0.0 | 1.0 | 0.00 | 0.00 | 0.00 | 46 | 1017.0 |
| 20260504000809 | 66 | 184 | 0.0 | 2.0 | 0.00 | 0.00 | 0.00 | 46 | 1017.1 |
| 20260504000306 | 66 | 224 | 0.0 | 1.0 | 0.00 | 0.00 | 0.00 | 41 | 1017.1 |
| 20260503235804 | 67 | 193 | 1.0 | 2.0 | 0.00 | 0.00 | 0.00 | 40 | 1016.9 |
| 20260503235301 | 67 | 231 | 1.0 | 1.0 | 0.00 | 0.00 | 0.00 | 38 | 1017.1 |
| 20260503234759 | 68 | 253 | 0.0 | 2.0 | 0.00 | 0.00 | 0.00 | 36 | 1017.0 |
| 20260503234256 | 68 | 244 | 2.0 | 2.0 | 0.00 | 0.00 | 0.00 | 35 | 1017.0 |
| 20260503233754 | 68 | 234 | 2.0 | 2.0 | 0.00 | 0.00 | 0.00 | 34 | 1017.0 |
| 20260503233249 | 68 | 262 | 1.0 | 1.0 | 0.00 | 0.00 | 0.00 | 33 | 1017.1 |
| 20260503232746 | 69 | 242 | 2.0 | 2.0 | 0.00 | 0.00 | 0.00 | 32 | 1017.0 |
| 20260503232244 | 69 | 209 | 1.0 | 2.0 | 0.00 | 0.00 | 0.00 | 33 | 1017.0 |
| 20260503231742 | 69 | 288 | 1.0 | 2.0 | 0.00 | 0.00 | 0.00 | 35 | 1016.8 |
| 20260503231238 | 69 | 219 | 3.0 | 4.0 | 0.00 | 0.00 | 0.00 | 34 | 1017.0 |
| 20260503230734 | 69 | 210 | 3.0 | 6.0 | 0.00 | 0.00 | 0.00 | 34 | 1016.9 |
| 20260503230232 | 69 | 214 | 4.0 | 6.0 | 0.00 | 0.00 | 0.00 | 33 | 1017.0 |
| 20260503225729 | 69 | 221 | 3.0 | 6.0 | 0.00 | 0.00 | 0.00 | 34 | 1016.9 |
| 20260503225229 | 70 | 211 | 3.0 | 6.0 | 0.00 | 0.00 | 0.00 | 33 | 1017.0 |
| 20260503224726 | 70 | 252 | 3.0 | 4.0 | 0.00 | 0.00 | 0.00 | 35 | 1017.1 |
| 20260503224224 | 70 | 297 | 0.0 | 3.0 | 0.00 | 0.00 | 0.00 | 37 | 1017.1 |
| 20260503223721 | 70 | 215 | 5.0 | 6.0 | 0.00 | 0.00 | 0.00 | 34 | 1017.0 |
| 20260503223219 | 70 | 217 | 0.0 | 2.0 | 0.00 | 0.00 | 0.00 | 34 | 1016.9 |
| 20260503222715 | 71 | 216 | 2.0 | 3.0 | 0.00 | 0.00 | 0.00 | 33 | 1017.0 |
| 20260503222213 | 71 | 290 | 2.0 | 4.0 | 0.00 | 0.00 | 0.00 | 34 | 1017.1 |
| 20260503221711 | 71 | 191 | 3.0 | 6.0 | 0.00 | 0.00 | 0.00 | 34 | 1017.3 |
| 20260503221209 | 71 | 196 | 3.0 | 4.0 | 0.00 | 0.00 | 0.00 | 35 | 1017.0 |
| 20260503220705 | 71 | 237 | 4.0 | 4.0 | 0.00 | 0.00 | 0.00 | 35 | 1017.2 |
| 20260503220202 | 72 | 208 | 3.0 | 5.0 | 0.00 | 0.00 | 0.00 | 34 | 1017.5 |
| 20260503215659 | 72 | 232 | 4.0 | 10.0 | 0.00 | 0.00 | 0.00 | 35 | 1017.3 |
| 20260503215155 | 73 | 209 | 6.0 | 6.0 | 0.00 | 0.00 | 0.00 | 33 | 1017.1 |
| 20260503214654 | 72 | 225 | 2.0 | 2.0 | 0.00 | 0.00 | 0.00 | 34 | 1017.2 |
| 20260503214150 | 73 | 208 | 4.0 | 5.0 | 0.00 | 0.00 | 0.00 | 32 | 1017.2 |
| 20260503213649 | 74 | 245 | 4.0 | 4.0 | 0.00 | 0.00 | 0.00 | 33 | 1017.2 |
| 20260503213145 | 74 | 221 | 3.0 | 7.0 | 0.00 | 0.00 | 0.00 | 32 | 1017.3 |
| 20260503212643 | 74 | 204 | 2.0 | 3.0 | 0.00 | 0.00 | 0.00 | 30 | 1017.3 |
| 20260503212140 | 73 | 268 | 2.0 | 2.0 | 0.00 | 0.00 | 0.00 | 30 | 1017.3 |
| 20260503211638 | 75 | 206 | 4.0 | 8.0 | 0.00 | 0.00 | 0.00 | 28 | 1017.3 |
| 20260503211133 | 74 | 236 | 2.0 | 4.0 | 0.00 | 0.00 | 0.00 | 32 | 1017.5 |
| 20260503210629 | 74 | 217 | 5.0 | 5.0 | 0.00 | 0.00 | 0.00 | 29 | 1017.7 |
| 20260503210126 | 73 | 198 | 2.0 | 5.0 | 0.00 | 0.00 | 0.00 | 33 | 1017.6 |
| 20260503205622 | 73 | 207 | 4.0 | 5.0 | 0.00 | 0.00 | 0.00 | 34 | 1017.7 |
| 20260503205118 | 72 | 265 | 4.0 | 6.0 | 0.00 | 0.00 | 0.00 | 33 | 1017.7 |
| 20260503204615 | 74 | 220 | 4.0 | 6.0 | 0.00 | 0.00 | 0.00 | 34 | 1017.5 |